Etusivu
METAR-TAF:

METAR-TAF

Lentoasemat :

Kumamoto, Japani

Leveyspiiri: 32-50N, Pituuspiiri: 130-51E, korkeus merenpinnasta: 193 m

Tämänhetkinen sää

Tämä raportti tehtiin 42 minuuttia sitten, kello 10.00 UTC
Tuuli 3 kn etelästä
Lämpötila 15°C
Kosteus 55%
Ilmanpaine 1014 hPa
Näkyvyys 10 km tai enemmän
ei pilviä alle 1500 m:ssä eikä cumulonimbus-pilviä

METAR: RJFT 071000Z 18003KT CAVOK 15/06 Q1014

Aika: 19:42 (10:42 UTC)

Sääennuste

Tämä raportti tehtiin 5 tuntia ja 34 minuuttia sitten, kello 05.08 UTC
Ennuste voimassa 07. päivästä klo 06 UTC - 08. päivään klo 12 UTC
Tuuli 6 kn lännestä/lounaasta
Näkyvyys 10 km tai enemmän
Muutamia pilviä 4500 ft:n korkeudessa
Tulossa
07. päivästä klo 09 UTC - 07. päivään klo 11 UTC
Tuuli 3 kn idästä/koillisesta
Tulossa
07. päivästä klo 21 UTC - 08. päivään klo 00 UTC
Tuuli 6 kn lännestä/lounaasta

TAF: RJFT 070508Z 0706/0812 25006KT 9999 FEW045 BECMG 0709/0711 07003KT BECMG 0721/0800 24006KT

Säähavainnot ja -ennusteet yli 4000 lentoasemalta (METAR- ja TAF-raportit).

Käytössä olevat sääasemat on merkitty karttaan keltaisilla ja punaisilla pisteillä.

Aseta hiiri pisteen päälle nähdäksesi sääaseman nimen.

Klikkaa sitten nähdäksesi säähavainnot ja -ennusteet.

Kartan vaihtaminen: klikkaa mustalla rastilla varustettuja vihreitä pisteitä, niin voit zoomata sisään; viivalla varustettua vihreää pistettä, niin voit zoomata ulos tai vihreitä nuolia, niin pääset viereisille kartoille.


METAR-TAF: